Time;durP1;ratioP1;P1;durP2;ratioP2;P2;SDS_P1;SDS_P2;PMS_P1;PMS_P2;Temp;Humidity;BMP_temperature;BMP_pressure;BME280_temperature;BME280_humidity;BME280_pressure;Samples;Min_cycle;Max_cycle;Signal;HPM_P1;HPM_P2
2023/10/09 00:04:41;;;;;;;15.45;8.75;;;;;;;15.02;70.13;100932.56;21056944;28;20622;-85
2023/10/09 00:14:48;;;;;;;18.23;9.13;;;;;;;14.64;71.58;100918.47;21082005;28;20191;-82
2023/10/09 00:25:09;;;;;;;18.58;10.18;;;;;;;14.82;71.63;100911.50;21073152;28;20230;-83
2023/10/09 00:45:39;;;;;;;19.33;9.57;;;;;;;14.91;69.50;100895.28;21081609;28;20198;-86
2023/10/09 00:55:55;;;;;;;21.80;8.63;;;;;;;14.82;70.86;100886.00;21063607;28;20629;-80
2023/10/09 01:06:16;;;;;;;17.13;8.32;;;;;;;14.98;68.21;100870.03;21069071;28;20285;-82
2023/10/09 01:16:22;;;;;;;20.10;8.50;;;;;;;15.08;69.36;100857.47;21051702;28;20218;-85
2023/10/09 01:26:32;;;;;;;12.40;7.68;;;;;;;15.33;68.31;100852.78;21065625;28;20463;-80
2023/10/09 01:36:38;;;;;;;13.27;7.85;;;;;;;15.43;67.16;100877.84;21065001;28;20554;-84
2023/10/09 01:46:45;;;;;;;13.25;8.02;;;;;;;15.46;66.48;100871.47;21073576;28;20187;-80
2023/10/09 01:56:52;;;;;;;13.57;7.80;;;;;;;15.56;65.37;100871.06;21067835;28;20240;-85
2023/10/09 02:06:59;;;;;;;13.25;7.68;;;;;;;15.54;65.37;100873.41;21064959;28;20199;-85
2023/10/09 02:17:08;;;;;;;15.07;7.70;;;;;;;14.96;67.34;100863.88;21078000;28;20343;-81
2023/10/09 02:27:19;;;;;;;17.13;6.63;;;;;;;15.47;65.04;100861.78;21074798;28;20201;-81
2023/10/09 02:37:25;;;;;;;11.93;6.88;;;;;;;15.41;65.43;100846.19;21058033;28;20232;-80
2023/10/09 02:47:39;;;;;;;10.93;6.65;;;;;;;15.58;63.35;100851.69;21069834;28;20224;-84
2023/10/09 02:57:45;;;;;;;12.10;6.47;;;;;;;15.38;64.99;100842.03;21051211;28;20234;-81
2023/10/09 03:07:48;;;;;;;16.23;6.80;;;;;;;15.23;65.51;100828.50;21083436;28;20205;-81
2023/10/09 03:17:52;;;;;;;12.25;6.72;;;;;;;15.14;65.72;100826.94;21103608;28;20264;-82
2023/10/09 03:27:58;;;;;;;12.50;6.45;;;;;;;15.66;63.81;100813.03;21063866;28;20232;-82
2023/10/09 03:38:11;;;;;;;11.90;6.82;;;;;;;15.69;63.46;100812.34;21095847;28;20243;-81
2023/10/09 03:48:21;;;;;;;9.88;6.25;;;;;;;15.19;65.12;100790.69;21093588;28;20602;-85
2023/10/09 03:58:30;;;;;;;10.98;6.47;;;;;;;14.85;66.04;100788.97;21093253;28;20265;-80
2023/10/09 04:08:39;;;;;;;10.48;6.75;;;;;;;14.94;66.36;100781.22;21076051;28;20487;-86
2023/10/09 04:18:45;;;;;;;19.20;7.37;;;;;;;15.29;65.65;100775.25;21013374;28;20564;-81
2023/10/09 04:28:52;;;;;;;12.63;6.80;;;;;;;14.87;66.16;100755.47;21040584;28;20278;-83
2023/10/09 04:39:15;;;;;;;11.95;6.50;;;;;;;15.24;64.51;100764.94;21025717;28;20276;-85
2023/10/09 04:49:34;;;;;;;12.02;6.65;;;;;;;15.30;64.06;100757.06;21031644;28;20251;-79
2023/10/09 04:59:46;;;;;;;11.75;6.93;;;;;;;15.26;64.34;100759.75;21052779;28;20317;-82
2023/10/09 05:10:14;;;;;;;10.23;6.53;;;;;;;15.32;64.48;100766.88;21054911;28;20537;-81
2023/10/09 05:30:41;;;;;;;10.40;6.25;;;;;;;15.46;63.73;100781.53;21021602;28;20191;-88
2023/10/09 05:40:53;;;;;;;11.50;6.45;;;;;;;15.73;62.90;100816.94;21046675;28;20628;-81
2023/10/09 05:51:41;;;;;;;9.13;5.47;;;;;;;15.24;64.13;100818.81;21046223;28;20234;-87
2023/10/09 06:43:28;;;;;;;9.95;6.10;;;;;;;15.47;65.38;100870.28;21041074;28;20245;-79
2023/10/09 07:04:18;;;;;;;14.82;7.13;;;;;;;15.48;65.25;100860.59;20788305;28;20221;-79
2023/10/09 07:14:41;;;;;;;11.10;6.50;;;;;;;15.23;66.21;100833.34;21021463;28;20545;-80
2023/10/09 07:24:49;;;;;;;12.45;6.88;;;;;;;15.63;65.56;100862.78;21031469;28;20305;-84
2023/10/09 07:34:54;;;;;;;15.25;8.27;;;;;;;15.59;65.93;100907.19;21028465;28;20191;-84
2023/10/09 07:45:11;;;;;;;10.60;6.97;;;;;;;15.46;66.41;100894.16;21031482;28;20215;-80
2023/10/09 07:55:26;;;;;;;11.73;6.97;;;;;;;15.16;68.43;100821.75;21044976;28;20259;-80
2023/10/09 08:05:44;;;;;;;14.30;7.82;;;;;;;15.64;65.77;100843.75;21043173;28;20313;-81
2023/10/09 08:16:01;;;;;;;14.80;8.02;;;;;;;16.35;63.92;100872.63;21074379;28;20241;-81
2023/10/09 08:26:12;;;;;;;12.68;7.15;;;;;;;16.41;64.12;100890.22;21066880;28;20239;-80
2023/10/09 08:36:22;;;;;;;11.98;7.68;;;;;;;16.08;64.95;100908.22;21040239;28;20626;-83
2023/10/09 08:46:28;;;;;;;17.65;7.65;;;;;;;16.10;65.79;100937.09;21041994;28;20598;-81
2023/10/09 08:56:35;;;;;;;16.08;7.95;;;;;;;15.51;68.43;100901.63;21051131;28;20317;-86
2023/10/09 09:06:40;;;;;;;13.68;8.02;;;;;;;15.55;69.48;100826.00;21067698;28;20286;-82
2023/10/09 09:16:48;;;;;;;13.55;9.32;;;;;;;16.43;65.13;100799.81;21048079;28;20309;-86
2023/10/09 09:26:58;;;;;;;14.07;8.55;;;;;;;16.43;66.56;100775.06;21036528;28;20199;-84
2023/10/09 09:37:04;;;;;;;14.75;7.53;;;;;;;16.65;64.43;100781.44;21031657;28;20228;-84
2023/10/09 09:47:07;;;;;;;12.80;7.07;;;;;;;16.33;64.41;100775.56;21049307;28;20576;-81
2023/10/09 09:57:25;;;;;;;9.30;6.75;;;;;;;16.52;63.77;100790.00;21035638;28;20222;-83
2023/10/09 10:07:37;;;;;;;11.63;6.90;;;;;;;17.46;61.83;100837.06;21062961;28;20194;-85
2023/10/09 10:18:18;;;;;;;11.93;7.22;;;;;;;17.46;62.73;100857.81;21050261;28;20633;-81
2023/10/09 10:28:38;;;;;;;10.82;6.53;;;;;;;17.37;62.68;100850.63;21034430;28;20194;-81
2023/10/09 10:38:49;;;;;;;10.90;6.63;;;;;;;16.74;62.70;100848.34;21053415;28;20231;-80
2023/10/09 10:48:59;;;;;;;12.13;7.22;;;;;;;17.45;62.25;100855.31;21047511;28;20222;-85
2023/10/09 10:59:13;;;;;;;14.77;7.90;;;;;;;17.10;62.75;100844.56;21048873;28;20234;-84
2023/10/09 11:09:23;;;;;;;10.55;6.70;;;;;;;17.00;61.57;100859.28;21050186;28;20202;-84
2023/10/09 11:19:32;;;;;;;11.60;7.68;;;;;;;17.23;60.32;100864.44;21032972;28;20238;-81
2023/10/09 11:39:58;;;;;;;13.32;6.60;;;;;;;17.70;60.08;100873.94;21065397;28;20214;-82
2023/10/09 11:50:13;;;;;;;18.30;8.55;;;;;;;17.74;58.98;100872.00;21082806;28;20549;-85
2023/10/09 12:00:29;;;;;;;13.13;7.30;;;;;;;17.78;58.63;100858.72;21055624;28;20215;-81
2023/10/09 12:10:33;;;;;;;12.55;8.07;;;;;;;17.23;61.11;100848.22;21039198;28;20209;-81
2023/10/09 12:20:41;;;;;;;11.30;8.05;;;;;;;17.77;59.63;100861.91;21052613;28;20219;-85
2023/10/09 12:30:50;;;;;;;15.10;8.25;;;;;;;17.80;59.36;100856.28;21064865;28;20194;-83
2023/10/09 12:40:54;;;;;;;17.80;9.40;;;;;;;17.61;60.10;100872.44;21071508;28;20523;-87
2023/10/09 12:51:05;;;;;;;13.10;8.30;;;;;;;18.53;57.57;100867.16;21050499;28;20412;-83
2023/10/09 13:01:11;;;;;;;16.35;8.90;;;;;;;18.08;58.53;100861.94;21055183;28;20225;-81
2023/10/09 13:11:16;;;;;;;13.93;8.27;;;;;;;18.06;58.50;100869.22;21056703;28;20272;-86
2023/10/09 13:21:24;;;;;;;18.67;9.10;;;;;;;17.61;59.60;100869.59;21068029;28;20225;-81
2023/10/09 13:31:28;;;;;;;12.95;8.80;;;;;;;17.93;58.50;100851.38;21052746;28;20221;-79
2023/10/09 13:41:33;;;;;;;21.23;8.77;;;;;;;18.75;56.46;100834.31;21075298;28;20210;-86
2023/10/09 13:51:36;;;;;;;15.90;8.00;;;;;;;18.31;57.77;100847.91;21073052;28;20230;-81
2023/10/09 14:01:47;;;;;;;17.05;8.95;;;;;;;18.06;57.90;100849.28;21072293;28;20218;-80
2023/10/09 14:11:52;;;;;;;19.80;9.80;;;;;;;18.21;57.80;100842.75;21066838;28;20217;-80
2023/10/09 14:21:57;;;;;;;15.95;9.02;;;;;;;18.62;57.63;100829.94;21051369;28;20682;-85
2023/10/09 14:32:03;;;;;;;16.48;8.57;;;;;;;18.10;59.87;100833.09;21060033;28;20256;-79
2023/10/09 14:42:11;;;;;;;18.92;10.30;;;;;;;18.25;57.90;100837.97;21075558;28;20622;-83
2023/10/09 14:52:16;;;;;;;16.33;8.80;;;;;;;18.29;58.65;100836.03;21068440;28;20230;-80
2023/10/09 15:02:23;;;;;;;16.40;9.13;;;;;;;18.83;56.68;100823.91;21055370;28;20681;-80
2023/10/09 15:12:27;;;;;;;19.25;9.48;;;;;;;18.13;58.55;100815.28;21073157;28;20303;-85
2023/10/09 15:22:36;;;;;;;19.15;10.38;;;;;;;18.20;58.18;100815.44;21068834;28;20242;-80
2023/10/09 15:32:38;;;;;;;19.42;9.95;;;;;;;17.93;59.40;100829.44;21038240;28;20196;-81
2023/10/09 15:42:41;;;;;;;15.20;8.85;;;;;;;18.30;59.20;100839.72;21033892;28;20229;-80
2023/10/09 15:52:43;;;;;;;16.48;9.73;;;;;;;18.30;59.36;100851.94;21057806;28;20658;-81
2023/10/09 16:02:47;;;;;;;16.55;9.38;;;;;;;18.50;58.45;100847.13;21064238;28;20225;-85
2023/10/09 16:12:51;;;;;;;14.90;9.40;;;;;;;18.38;59.67;100852.94;21066780;28;20197;-83
2023/10/09 16:22:55;;;;;;;15.13;10.50;;;;;;;18.20;60.35;100859.00;21078754;28;20710;-82
2023/10/09 16:32:57;;;;;;;17.20;10.65;;;;;;;18.22;59.90;100868.03;21079072;28;20191;-80
2023/10/09 16:43:01;;;;;;;16.65;10.20;;;;;;;17.99;60.48;100877.56;21062188;28;20273;-82
2023/10/09 16:53:03;;;;;;;16.33;10.80;;;;;;;18.27;59.87;100870.59;21072824;28;20275;-82
2023/10/09 17:03:08;;;;;;;19.20;11.85;;;;;;;17.73;61.83;100867.50;21069926;28;20252;-81
2023/10/09 17:13:09;;;;;;;16.88;10.73;;;;;;;17.79;61.75;100876.63;21065089;28;20198;-81
2023/10/09 17:23:12;;;;;;;22.00;12.30;;;;;;;17.91;61.69;100897.31;21054445;28;20226;-81
2023/10/09 17:33:14;;;;;;;20.33;11.88;;;;;;;18.04;61.45;100900.09;21049538;28;20203;-81
2023/10/09 17:43:17;;;;;;;20.63;11.95;;;;;;;17.73;62.78;100907.34;21054994;28;20630;-81
2023/10/09 17:53:19;;;;;;;21.75;13.80;;;;;;;17.59;63.56;100918.34;21054742;28;20218;-82
2023/10/09 18:03:27;;;;;;;21.17;12.38;;;;;;;17.55;63.59;100923.91;21041354;28;20250;-81
2023/10/09 18:13:28;;;;;;;21.20;12.68;;;;;;;17.60;63.68;100930.56;21062323;28;20202;-83
2023/10/09 18:23:31;;;;;;;19.25;12.15;;;;;;;17.69;63.39;100926.34;21059190;28;20226;-79
2023/10/09 18:33:34;;;;;;;22.17;13.35;;;;;;;17.38;64.54;100934.78;21058088;28;20214;-81
2023/10/09 18:43:39;;;;;;;17.35;13.07;;;;;;;17.42;64.68;100930.84;21061106;28;20271;-79
2023/10/09 18:53:41;;;;;;;18.02;12.98;;;;;;;16.83;66.22;100937.13;21046318;28;20657;-80
2023/10/09 19:03:46;;;;;;;21.23;14.13;;;;;;;16.92;66.38;100928.47;21047702;28;20252;-79
2023/10/09 19:13:48;;;;;;;23.55;13.60;;;;;;;17.13;65.56;100923.47;21056774;28;20217;-86
2023/10/09 19:23:51;;;;;;;27.65;14.57;;;;;;;17.27;65.19;100928.78;21066098;28;20222;-81
2023/10/09 19:33:52;;;;;;;23.40;14.93;;;;;;;17.18;65.92;100937.41;21074130;28;20582;-87
2023/10/09 19:43:56;;;;;;;24.27;14.13;;;;;;;17.31;64.87;100940.25;21033767;28;20223;-81
2023/10/09 19:53:58;;;;;;;23.70;14.27;;;;;;;17.19;65.27;100938.25;21039788;28;20236;-83
2023/10/09 20:04:02;;;;;;;21.55;14.57;;;;;;;17.00;66.53;100946.59;21065936;28;20237;-81
2023/10/09 20:14:04;;;;;;;20.67;13.95;;;;;;;16.58;67.69;100954.56;21065118;28;20199;-84
2023/10/09 20:24:07;;;;;;;20.17;13.75;;;;;;;17.11;65.25;100962.81;21058736;28;20222;-80
2023/10/09 20:34:11;;;;;;;23.90;15.20;;;;;;;16.67;67.82;100969.47;21014429;28;20209;-81
2023/10/09 20:44:14;;;;;;;22.20;14.95;;;;;;;16.83;67.55;100981.78;21050738;28;20531;-86
2023/10/09 20:54:16;;;;;;;22.75;15.20;;;;;;;16.90;67.78;100979.16;21078586;28;20293;-84
2023/10/09 21:04:19;;;;;;;26.63;15.35;;;;;;;16.86;67.88;100981.09;21075796;28;20218;-80
2023/10/09 21:14:21;;;;;;;25.42;17.10;;;;;;;16.49;68.99;100989.56;21078648;28;20605;-86
2023/10/09 21:24:24;;;;;;;22.35;15.05;;;;;;;16.87;68.39;100991.28;21059119;28;20230;-80
2023/10/09 21:34:28;;;;;;;26.73;16.02;;;;;;;17.31;66.39;100992.28;21072475;28;20213;-84
2023/10/09 21:44:31;;;;;;;27.73;17.25;;;;;;;16.52;69.62;100980.34;21071558;28;20225;-85
2023/10/09 21:54:33;;;;;;;27.95;16.45;;;;;;;16.82;67.92;100988.66;21041998;28;20669;-81
2023/10/09 22:04:36;;;;;;;23.15;15.43;;;;;;;16.97;68.75;100987.94;21068684;28;20543;-80
2023/10/09 22:14:38;;;;;;;23.25;16.25;;;;;;;16.53;69.48;101001.06;21057570;28;20194;-82
2023/10/09 22:24:48;;;;;;;23.92;16.75;;;;;;;16.84;68.43;100995.66;21066204;28;20616;-81
2023/10/09 22:34:51;;;;;;;25.60;17.70;;;;;;;16.99;67.67;100984.75;21078234;28;20198;-82
2023/10/09 22:44:56;;;;;;;28.23;17.38;;;;;;;16.67;69.14;100986.50;21071980;28;20222;-83
2023/10/09 22:55:05;;;;;;;25.10;16.98;;;;;;;16.70;68.54;100983.81;21067441;28;20218;-85
2023/10/09 23:05:12;;;;;;;31.98;18.00;;;;;;;16.38;69.53;100991.19;21064046;28;20584;-86
2023/10/09 23:15:30;;;;;;;25.65;17.67;;;;;;;16.56;69.44;100982.50;21084096;28;20554;-81
2023/10/09 23:25:34;;;;;;;28.35;19.48;;;;;;;16.57;69.34;100987.81;21091704;28;20305;-87
2023/10/09 23:35:47;;;;;;;34.05;19.92;;;;;;;16.44;69.71;100986.94;21078915;28;20211;-86
2023/10/09 23:45:57;;;;;;;36.17;22.10;;;;;;;16.23;70.48;100988.22;21069325;28;20697;-82
2023/10/09 23:56:03;;;;;;;31.65;19.23;;;;;;;16.03;70.68;100981.41;21073875;28;20264;-82
